Albers, Illinois
Current Conditions -  °F | °C
As of 7:58 PM on Friday 21 Nov 2014 (Local Time) from KBLV Reporting Station
Overcast Overcast  
Wind Chill: 34°   Ceiling: 2200
Heat Index: 40°   Visibility: 10mi
Dew Point: 26°   Wind: 8mph
Humidity: 56%   Direction: 120°ESE
Pressure: 30.28"   Gusts: NA
Location:  38.54°N, 89.61°W
Report Text: KBLV 220158Z AUTO 12007KT 10SM OVC022 04/M04 A3028 RMK AO2 SLP262 T00441036
Loading
Personal Weather Stations






























Interactive Weather Map New forecast layout! Learn more

10-Day Weather Forecast

Advertisements
Track Severe Weather on mobile